Time;durP1;ratioP1;P1;durP2;ratioP2;P2;SDS_P1;SDS_P2;PMS_P1;PMS_P2;Temp;Humidity;BMP_temperature;BMP_pressure;BME280_temperature;BME280_humidity;BME280_pressure;Samples;Min_cycle;Max_cycle;Signal;HPM_P1;HPM_P2
2021/07/12 00:00:08;;;;;;;7.20;3.20;;;20.80;57.70;;;;;;5059940;28;20210;-77
2021/07/12 00:02:33;;;;;;;3.67;3.23;;;20.90;57.10;;;;;;5056165;28;20640;-76
2021/07/12 00:04:59;;;;;;;4.93;3.23;;;21.10;55.20;;;;;;5056762;28;20173;-78
2021/07/12 00:07:25;;;;;;;4.63;3.40;;;21.20;53.20;;;;;;5056631;28;20179;-74
2021/07/12 00:09:50;;;;;;;5.67;3.47;;;21.20;51.90;;;;;;5055891;28;20175;-76
2021/07/12 00:12:18;;;;;;;3.83;3.20;;;21.20;50.40;;;;;;5056412;28;20660;-78
2021/07/12 00:14:44;;;;;;;6.63;3.20;;;21.20;50.60;;;;;;5056974;28;20180;-78
2021/07/12 00:17:10;;;;;;;3.97;3.23;;;21.20;50.60;;;;;;5059011;28;20175;-78
2021/07/12 00:19:36;;;;;;;4.87;3.07;;;21.30;48.80;;;;;;5057540;28;20368;-77
2021/07/12 00:22:02;;;;;;;4.07;3.40;;;21.40;47.50;;;;;;5055045;28;20206;-75
2021/07/12 00:24:28;;;;;;;3.60;2.83;;;21.30;48.20;;;;;;5055550;28;20168;-75
2021/07/12 00:26:53;;;;;;;4.73;2.67;;;21.40;47.60;;;;;;5056213;28;20270;-79
2021/07/12 00:29:19;;;;;;;3.57;3.10;;;21.30;46.80;;;;;;5056551;28;20168;-76
2021/07/12 00:31:45;;;;;;;4.07;3.27;;;21.40;45.10;;;;;;5059980;28;20176;-75
2021/07/12 00:34:10;;;;;;;4.80;3.13;;;21.40;44.90;;;;;;5060850;28;20172;-77
2021/07/12 00:36:36;;;;;;;3.80;2.93;;;21.40;44.80;;;;;;5066446;28;20640;-76
2021/07/12 00:39:04;;;;;;;3.70;3.10;;;21.30;45.20;;;;;;5065915;28;20228;-73
2021/07/12 00:41:30;;;;;;;4.87;2.97;;;21.20;46.90;;;;;;5057896;28;20271;-74
2021/07/12 00:43:55;;;;;;;4.10;2.97;;;21.20;45.60;;;;;;5056954;28;20262;-77
2021/07/12 00:46:23;;;;;;;4.00;2.90;;;21.10;46.80;;;;;;5055697;28;20288;-75
2021/07/12 00:48:55;;;;;;;3.63;2.67;;;21.10;49.20;;;;;;5055781;28;20167;-75
2021/07/12 00:51:21;;;;;;;3.87;3.30;;;21.20;46.90;;;;;;5055906;28;20168;-78
2021/07/12 00:53:48;;;;;;;5.07;3.60;;;20.80;54.20;;;;;;5055475;28;20243;-74
2021/07/12 00:56:13;;;;;;;4.40;3.63;;;20.60;59.30;;;;;;5055652;28;20184;-77
2021/07/12 00:58:40;;;;;;;4.67;4.00;;;20.50;66.40;;;;;;5055194;28;20171;-76
2021/07/12 01:01:06;;;;;;;6.60;4.40;;;20.30;69.10;;;;;;5055464;28;20176;-77
2021/07/12 01:03:32;;;;;;;5.67;4.00;;;20.30;71.50;;;;;;5055254;28;20227;-74
2021/07/12 01:05:59;;;;;;;5.50;4.17;;;20.30;72.50;;;;;;5055424;28;20598;-76
2021/07/12 01:08:25;;;;;;;6.50;4.13;;;20.10;75.20;;;;;;5055074;28;20189;-76
2021/07/12 01:11:09;;;;;;;5.27;4.03;;;20.10;77.40;;;;;;5054760;28;20633;-76
2021/07/12 01:13:53;;;;;;;5.20;4.53;;;20.20;76.00;;;;;;5054610;28;20228;-79
2021/07/12 01:16:43;;;;;;;4.50;3.60;;;20.10;78.00;;;;;;5054937;28;20178;-78
2021/07/12 01:19:53;;;;;;;5.60;4.50;;;20.30;75.30;;;;;;5054391;28;20255;-77
2021/07/12 01:22:56;;;;;;;5.97;4.30;;;20.30;74.30;;;;;;5054152;28;20301;-77
2021/07/12 01:25:43;;;;;;;6.13;4.20;;;20.50;71.10;;;;;;5059202;28;20171;-78
2021/07/12 01:28:28;;;;;;;6.40;4.27;;;20.40;68.80;;;;;;5060657;28;20170;-74
2021/07/12 01:31:11;;;;;;;4.20;3.80;;;20.60;66.50;;;;;;5063317;28;20216;-77
2021/07/12 01:33:49;;;;;;;6.60;4.63;;;20.50;66.90;;;;;;5061098;28;20169;-78
2021/07/12 01:36:29;;;;;;;4.67;4.17;;;20.40;67.30;;;;;;5064949;28;20159;-76
2021/07/12 01:39:03;;;;;;;5.00;4.40;;;20.20;71.30;;;;;;5058844;28;20197;-77
2021/07/12 01:41:39;;;;;;;5.63;4.80;;;20.10;72.10;;;;;;5054863;28;20168;-77
2021/07/12 01:44:31;;;;;;;6.27;4.57;;;19.80;77.90;;;;;;5054569;28;20202;-78
2021/07/12 01:47:09;;;;;;;5.33;4.43;;;19.70;81.60;;;;;;5054557;28;20173;-74
2021/07/12 01:49:53;;;;;;;5.47;4.40;;;19.70;82.90;;;;;;5054582;28;20657;-74
2021/07/12 01:52:27;;;;;;;4.97;4.43;;;19.80;81.80;;;;;;5053896;28;20175;-77
2021/07/12 01:55:01;;;;;;;6.03;3.93;;;19.70;81.30;;;;;;5054217;28;20174;-77
2021/07/12 01:57:32;;;;;;;6.80;4.83;;;19.70;80.30;;;;;;5054111;28;20156;-74
2021/07/12 02:00:00;;;;;;;5.90;4.80;;;19.60;81.90;;;;;;5054331;28;20758;-76
2021/07/12 02:02:30;;;;;;;5.90;4.53;;;19.70;82.30;;;;;;5054270;28;20200;-74
2021/07/12 02:04:59;;;;;;;5.60;4.33;;;19.50;83.10;;;;;;5053603;28;20532;-74
2021/07/12 02:07:27;;;;;;;5.30;4.37;;;19.60;83.90;;;;;;5054265;28;20166;-77
2021/07/12 02:09:54;;;;;;;6.20;4.53;;;19.40;84.00;;;;;;5054029;28;20180;-77
2021/07/12 02:12:21;;;;;;;7.00;4.87;;;19.50;82.00;;;;;;5056096;28;20159;-78
2021/07/12 02:14:49;;;;;;;5.50;4.30;;;19.50;83.00;;;;;;5060045;28;20170;-77
2021/07/12 02:17:17;;;;;;;5.23;3.90;;;19.60;82.90;;;;;;5059019;28;20249;-77
2021/07/12 02:19:45;;;;;;;4.77;4.27;;;19.60;80.00;;;;;;5059143;28;20201;-75
2021/07/12 02:22:11;;;;;;;6.40;4.43;;;19.60;79.20;;;;;;5058474;28;20245;-78
2021/07/12 02:24:38;;;;;;;4.20;3.77;;;19.80;76.90;;;;;;5059582;28;20193;-76
2021/07/12 02:27:04;;;;;;;4.67;4.10;;;19.80;72.50;;;;;;5060443;28;20191;-77
2021/07/12 02:29:31;;;;;;;5.03;4.10;;;19.80;70.90;;;;;;5062444;28;20239;-78
2021/07/12 02:31:58;;;;;;;5.47;4.63;;;19.80;71.10;;;;;;5063199;28;20175;-76
2021/07/12 02:34:25;;;;;;;6.17;4.20;;;19.80;71.70;;;;;;5063902;28;20258;-77
2021/07/12 02:36:52;;;;;;;5.03;4.30;;;19.80;71.30;;;;;;5064049;28;20178;-74
2021/07/12 02:39:18;;;;;;;6.60;4.43;;;19.90;69.50;;;;;;5060314;28;20267;-75
2021/07/12 02:41:46;;;;;;;5.83;4.47;;;19.80;70.00;;;;;;5053352;28;20179;-74
2021/07/12 02:44:13;;;;;;;4.93;3.93;;;19.60;71.70;;;;;;5053852;28;20180;-79
2021/07/12 02:46:40;;;;;;;6.03;4.10;;;19.40;77.70;;;;;;5054354;28;20185;-75
2021/07/12 02:49:09;;;;;;;4.50;3.80;;;19.40;79.20;;;;;;5053794;28;20162;-78
2021/07/12 02:51:49;;;;;;;5.17;4.50;;;19.40;77.60;;;;;;5054111;28;20268;-79
2021/07/12 02:54:21;;;;;;;5.07;4.03;;;19.50;75.60;;;;;;5054366;28;20161;-76
2021/07/12 02:56:46;;;;;;;5.60;4.43;;;19.60;72.70;;;;;;5053295;28;20169;-77
2021/07/12 02:59:14;;;;;;;4.90;4.13;;;19.50;73.70;;;;;;5053094;28;20785;-79
2021/07/12 03:01:41;;;;;;;6.03;4.20;;;19.50;75.60;;;;;;5053488;28;20165;-78
2021/07/12 03:04:07;;;;;;;7.30;4.10;;;19.40;78.10;;;;;;5053360;28;20173;-76
2021/07/12 03:06:33;;;;;;;5.20;4.43;;;19.40;80.30;;;;;;5053550;28;20161;-75
2021/07/12 03:09:12;;;;;;;4.63;4.23;;;19.30;80.90;;;;;;5056550;28;20256;-78
2021/07/12 03:11:50;;;;;;;4.63;4.13;;;19.20;82.50;;;;;;5059110;28;20177;-78
2021/07/12 03:14:38;;;;;;;7.27;4.60;;;19.20;85.20;;;;;;5060223;28;20176;-78
2021/07/12 03:17:07;;;;;;;5.17;4.23;;;19.30;82.00;;;;;;5060342;28;20179;-77
2021/07/12 03:19:38;;;;;;;5.10;4.10;;;19.20;83.00;;;;;;5059961;28;20201;-75
2021/07/12 03:22:08;;;;;;;6.23;5.00;;;19.20;83.50;;;;;;5059534;28;20280;-74
2021/07/12 03:24:40;;;;;;;5.00;4.50;;;19.20;84.40;;;;;;5059989;28;20179;-76
2021/07/12 03:27:10;;;;;;;5.13;4.13;;;19.20;84.50;;;;;;5059537;28;20256;-78
2021/07/12 03:29:38;;;;;;;8.93;5.30;;;19.30;84.00;;;;;;5059650;28;20164;-77
2021/07/12 03:32:05;;;;;;;5.77;4.90;;;19.30;84.40;;;;;;5059156;28;20705;-74
2021/07/12 03:34:32;;;;;;;5.47;4.70;;;19.40;84.60;;;;;;5059449;28;20169;-77
2021/07/12 03:36:59;;;;;;;5.37;4.20;;;19.40;85.30;;;;;;5059246;28;20185;-74
2021/07/12 03:39:29;;;;;;;6.27;4.90;;;19.40;85.30;;;;;;5058046;28;20216;-75
2021/07/12 03:41:57;;;;;;;6.37;4.40;;;19.50;83.50;;;;;;5059470;28;20188;-75
2021/07/12 03:44:23;;;;;;;5.57;4.23;;;19.50;81.80;;;;;;5059724;28;20615;-74
2021/07/12 03:46:49;;;;;;;6.17;4.17;;;19.50;82.50;;;;;;5072091;28;20193;-74
2021/07/12 03:49:17;;;;;;;6.93;4.27;;;19.30;85.00;;;;;;5073066;28;20179;-77
2021/07/12 03:51:46;;;;;;;5.53;4.33;;;19.30;84.30;;;;;;5059673;28;20599;-75
2021/07/12 03:54:13;;;;;;;7.90;4.63;;;19.30;83.20;;;;;;5059704;28;20169;-76
2021/07/12 03:56:39;;;;;;;6.40;4.40;;;19.20;87.00;;;;;;5059848;28;20197;-75
2021/07/12 03:59:05;;;;;;;5.60;4.50;;;19.10;87.40;;;;;;5059525;28;20220;-75
2021/07/12 04:01:31;;;;;;;8.47;4.33;;;18.90;90.30;;;;;;5059461;28;20226;-78
2021/07/12 04:03:57;;;;;;;6.57;4.80;;;18.80;90.70;;;;;;5059441;28;20168;-77
2021/07/12 04:06:23;;;;;;;5.40;4.60;;;18.80;90.90;;;;;;5060111;28;20170;-75
2021/07/12 04:08:49;;;;;;;5.47;4.33;;;18.70;91.40;;;;;;5060804;28;20199;-79
2021/07/12 04:11:16;;;;;;;8.13;5.13;;;18.70;91.80;;;;;;5061560;28;20263;-78
2021/07/12 04:13:42;;;;;;;6.77;4.60;;;18.70;91.90;;;;;;5068435;28;20171;-73
2021/07/12 04:16:08;;;;;;;7.17;5.10;;;18.70;91.80;;;;;;5072894;28;20173;-76
2021/07/12 04:18:34;;;;;;;5.43;4.83;;;18.70;91.90;;;;;;5068791;28;20617;-78
2021/07/12 04:21:01;;;;;;;5.90;5.23;;;18.80;91.60;;;;;;5061905;28;20184;-74
2021/07/12 04:23:28;;;;;;;7.07;5.10;;;19.00;91.00;;;;;;5056532;28;20188;-77
2021/07/12 04:25:54;;;;;;;5.33;4.70;;;19.10;90.30;;;;;;5056230;28;20184;-78
2021/07/12 04:28:20;;;;;;;6.27;4.90;;;19.20;89.30;;;;;;5056248;28;20162;-75
2021/07/12 04:30:47;;;;;;;25.10;18.07;;;19.40;84.60;;;;;;5055813;28;20226;-76
2021/07/12 04:33:13;;;;;;;8.60;4.87;;;19.40;81.50;;;;;;5056133;28;20165;-77
2021/07/12 04:35:39;;;;;;;5.07;4.17;;;19.60;78.10;;;;;;5054618;28;20185;-75
2021/07/12 04:38:04;;;;;;;5.50;4.93;;;19.60;75.60;;;;;;5056709;28;20524;-79
2021/07/12 04:40:30;;;;;;;6.23;5.00;;;19.70;76.00;;;;;;5056073;28;20669;-74
2021/07/12 04:42:56;;;;;;;6.40;4.47;;;19.70;75.80;;;;;;5055532;28;20182;-78
2021/07/12 04:45:25;;;;;;;6.37;3.90;;;19.80;75.80;;;;;;5055052;28;20194;-79
2021/07/12 04:47:51;;;;;;;6.80;3.90;;;19.90;72.90;;;;;;5055505;28;20162;-75
2021/07/12 04:50:17;;;;;;;5.73;4.17;;;20.10;71.60;;;;;;5055537;28;20245;-76
2021/07/12 04:52:43;;;;;;;5.90;3.90;;;20.10;66.80;;;;;;5055297;28;20265;-76
2021/07/12 04:55:09;;;;;;;6.13;4.27;;;20.10;64.10;;;;;;5054816;28;20207;-78
2021/07/12 04:57:35;;;;;;;6.50;4.30;;;20.10;62.50;;;;;;5053973;28;20598;-76
2021/07/12 05:00:03;;;;;;;5.70;4.50;;;20.10;63.90;;;;;;5054384;28;20286;-75
2021/07/12 05:02:29;;;;;;;5.60;4.20;;;20.20;63.90;;;;;;5055116;28;20260;-77
2021/07/12 05:04:54;;;;;;;5.27;3.47;;;20.40;60.60;;;;;;5054821;28;20701;-75
2021/07/12 05:07:20;;;;;;;5.07;3.83;;;20.40;57.30;;;;;;5054892;28;20253;-77
2021/07/12 05:09:46;;;;;;;4.47;3.57;;;20.40;55.70;;;;;;5055035;28;20176;-80
2021/07/12 05:12:13;;;;;;;6.33;4.17;;;20.40;57.20;;;;;;5055346;28;20213;-78
2021/07/12 05:14:42;;;;;;;5.53;3.97;;;20.40;57.80;;;;;;5054878;28;20185;-75
2021/07/12 05:17:09;;;;;;;5.10;3.53;;;20.50;58.20;;;;;;5055142;28;20179;-75
2021/07/12 05:19:35;;;;;;;4.47;3.37;;;20.50;56.80;;;;;;5055050;28;20277;-79
2021/07/12 05:22:01;;;;;;;4.43;2.83;;;20.60;55.20;;;;;;5054747;28;20667;-76
2021/07/12 05:24:26;;;;;;;6.13;3.40;;;20.60;55.50;;;;;;5055199;28;20191;-77
2021/07/12 05:26:52;;;;;;;7.10;3.40;;;20.70;53.50;;;;;;5054793;28;20161;-78
2021/07/12 05:29:18;;;;;;;6.77;3.50;;;20.80;49.90;;;;;;5054482;28;20180;-78
2021/07/12 05:31:45;;;;;;;4.40;2.97;;;20.90;47.50;;;;;;5054893;28;20310;-79
2021/07/12 05:34:11;;;;;;;6.57;2.77;;;21.00;41.50;;;;;;5059410;28;20174;-75
2021/07/12 05:36:36;;;;;;;3.73;2.70;;;21.20;38.40;;;;;;5059788;28;20536;-75
2021/07/12 05:39:03;;;;;;;3.70;2.73;;;21.20;32.90;;;;;;5059354;28;20229;-74
2021/07/12 05:41:29;;;;;;;3.77;2.60;;;21.40;32.50;;;;;;5058785;28;20210;-76
2021/07/12 05:43:55;;;;;;;5.13;3.50;;;21.40;34.70;;;;;;5060148;28;20171;-80
2021/07/12 05:46:21;;;;;;;3.93;2.27;;;21.50;32.20;;;;;;5053948;28;20196;-79
2021/07/12 05:48:47;;;;;;;7.07;3.10;;;21.50;28.80;;;;;;5054253;28;20169;-75
2021/07/12 05:51:13;;;;;;;10.50;2.90;;;21.70;24.50;;;;;;5054061;28;20172;-78
2021/07/12 05:53:39;;;;;;;5.30;2.30;;;21.80;21.40;;;;;;5054687;28;20250;-77
2021/07/12 05:56:05;;;;;;;5.53;2.40;;;22.00;17.70;;;;;;5053792;28;20620;-75
2021/07/12 05:58:31;;;;;;;3.77;2.13;;;22.20;13.00;;;;;;5053723;28;20647;-77
2021/07/12 06:00:56;;;;;;;3.33;2.40;;;22.40;10.30;;;;;;5053845;28;20212;-75
2021/07/12 06:03:23;;;;;;;7.30;4.13;;;22.40;7.30;;;;;;5053893;28;20187;-77
2021/07/12 06:05:48;;;;;;;6.07;2.47;;;22.50;6.20;;;;;;5053952;28;20185;-74
2021/07/12 06:08:14;;;;;;;3.87;2.13;;;22.60;1.00;;;;;;5053974;28;20165;-79
2021/07/12 06:10:40;;;;;;;2.97;2.20;;;22.60;1.00;;;;;;5054256;28;20178;-78
2021/07/12 06:13:06;;;;;;;3.37;1.80;;;22.50;1.00;;;;;;5053580;28;20647;-75
2021/07/12 06:15:31;;;;;;;4.87;2.57;;;22.80;1.00;;;;;;5053636;28;20187;-75
2021/07/12 06:17:57;;;;;;;3.97;2.17;;;22.70;1.00;;;;;;5053444;28;20637;-74
2021/07/12 06:20:23;;;;;;;6.93;2.30;;;22.80;1.00;;;;;;5053524;28;20745;-77
2021/07/12 06:22:49;;;;;;;5.63;2.30;;;22.90;1.00;;;;;;5053360;28;20575;-77
2021/07/12 06:25:17;;;;;;;3.63;2.00;;;23.10;1.00;;;;;;5053273;28;20181;-78
2021/07/12 06:27:43;;;;;;;5.47;2.50;;;23.10;1.00;;;;;;5053597;28;20167;-78
2021/07/12 06:30:09;;;;;;;5.67;2.30;;;23.20;1.00;;;;;;5053919;28;20166;-78
2021/07/12 06:32:35;;;;;;;4.23;2.10;;;23.30;1.00;;;;;;5053721;28;20174;-76
2021/07/12 06:35:03;;;;;;;3.63;1.93;;;23.50;1.00;;;;;;5053327;28;20175;-75
2021/07/12 06:37:29;;;;;;;3.60;1.77;;;23.50;1.00;;;;;;5053296;28;20635;-78
2021/07/12 06:39:55;;;;;;;3.33;1.90;;;23.50;1.00;;;;;;5053445;28;20261;-78
2021/07/12 06:42:20;;;;;;;4.47;1.90;;;23.50;1.00;;;;;;5052882;28;20183;-76
2021/07/12 06:44:46;;;;;;;3.03;1.90;;;23.60;1.00;;;;;;5052176;28;20180;-75
2021/07/12 06:47:12;;;;;;;4.90;2.00;;;23.80;1.00;;;;;;5052693;28;20172;-76
2021/07/12 06:49:37;;;;;;;3.77;2.00;;;24.00;1.00;;;;;;5052743;28;20345;-76
2021/07/12 06:52:03;;;;;;;2.67;1.70;;;24.00;1.00;;;;;;5052850;28;20178;-75
2021/07/12 06:54:29;;;;;;;2.80;1.67;;;23.90;1.00;;;;;;5055100;28;20194;-78
2021/07/12 06:56:54;;;;;;;3.10;1.70;;;24.00;1.00;;;;;;5055957;28;20173;-76
2021/07/12 06:59:20;;;;;;;6.83;2.67;;;24.10;1.00;;;;;;5056615;28;20211;-77
2021/07/12 07:01:46;;;;;;;4.73;1.90;;;24.00;1.00;;;;;;5057341;28;20339;-75
2021/07/12 07:04:12;;;;;;;5.53;2.10;;;23.70;1.00;;;;;;5053910;28;20175;-78
2021/07/12 07:06:38;;;;;;;5.03;1.50;;;23.70;1.00;;;;;;5052867;28;20210;-77
2021/07/12 07:09:05;;;;;;;4.87;2.10;;;23.70;1.00;;;;;;5052766;28;20636;-74
2021/07/12 07:11:34;;;;;;;3.97;1.80;;;23.70;1.00;;;;;;5051353;28;20553;-78
2021/07/12 07:14:02;;;;;;;3.97;2.27;;;23.60;1.00;;;;;;5053215;28;20213;-75
2021/07/12 07:16:28;;;;;;;2.83;2.00;;;23.70;1.00;;;;;;5053363;28;20342;-75
2021/07/12 07:18:54;;;;;;;4.33;1.67;;;24.00;1.00;;;;;;5053175;28;20167;-76
2021/07/12 07:21:19;;;;;;;3.33;1.97;;;24.10;1.00;;;;;;5052584;28;20180;-77
2021/07/12 07:23:46;;;;;;;2.80;1.80;;;24.20;1.00;;;;;;5052780;28;20180;-78
2021/07/12 07:26:12;;;;;;;6.17;2.47;;;24.10;1.00;;;;;;5052654;28;20175;-78
2021/07/12 07:28:39;;;;;;;4.57;2.30;;;24.20;1.00;;;;;;5052768;28;20180;-78
2021/07/12 07:31:05;;;;;;;2.87;2.00;;;24.30;1.00;;;;;;5053087;28;20212;-79
2021/07/12 07:33:30;;;;;;;3.10;1.83;;;24.30;1.00;;;;;;5053060;28;20175;-77
2021/07/12 07:35:57;;;;;;;3.37;2.00;;;24.30;1.00;;;;;;5053450;28;20184;-77
2021/07/12 07:38:23;;;;;;;8.73;2.83;;;24.30;1.00;;;;;;5052705;28;20714;-78
2021/07/12 07:40:49;;;;;;;3.80;2.00;;;24.50;1.00;;;;;;5053379;28;20211;-76
2021/07/12 07:43:15;;;;;;;3.43;1.73;;;24.40;1.00;;;;;;5053942;28;20173;-77
2021/07/12 07:45:40;;;;;;;3.47;1.97;;;24.40;1.00;;;;;;5052590;28;20191;-77
2021/07/12 07:48:06;;;;;;;5.10;2.17;;;24.40;1.00;;;;;;5055157;28;20230;-75
2021/07/12 07:50:36;;;;;;;6.50;2.07;;;24.60;1.00;;;;;;5067515;28;20187;-73
2021/07/12 07:53:04;;;;;;;3.73;1.80;;;24.60;1.00;;;;;;5066841;28;20204;-79
2021/07/12 07:55:30;;;;;;;4.77;1.80;;;24.80;1.00;;;;;;5055690;28;20622;-76
2021/07/12 07:57:58;;;;;;;2.43;1.53;;;24.70;1.00;;;;;;5063589;28;20171;-75
2021/07/12 08:00:29;;;;;;;3.50;1.90;;;24.80;1.00;;;;;;5065864;28;20267;-75
2021/07/12 08:02:57;;;;;;;5.00;2.33;;;24.90;1.00;;;;;;5058358;28;20182;-78
2021/07/12 08:05:23;;;;;;;4.30;2.00;;;25.00;1.00;;;;;;5056512;28;20223;-80
2021/07/12 08:07:48;;;;;;;4.77;1.90;;;25.20;1.00;;;;;;5056588;28;20169;-75
2021/07/12 08:10:17;;;;;;;3.93;1.90;;;25.10;1.00;;;;;;5056590;28;20579;-75
2021/07/12 08:12:45;;;;;;;3.47;1.70;;;25.30;1.00;;;;;;5056611;28;20629;-79
2021/07/12 08:15:13;;;;;;;5.23;4.67;;;25.20;1.00;;;;;;5056260;28;20164;-75
2021/07/12 08:17:40;;;;;;;15.03;3.23;;;25.20;1.00;;;;;;5055903;28;20751;-78
2021/07/12 08:20:08;;;;;;;6.07;2.30;;;25.20;1.00;;;;;;5056226;28;20209;-76
2021/07/12 08:22:35;;;;;;;5.30;2.27;;;25.30;1.00;;;;;;5055306;28;20222;-79
2021/07/12 08:25:04;;;;;;;5.77;2.47;;;25.40;1.00;;;;;;5056187;28;20181;-78
2021/07/12 08:27:32;;;;;;;3.87;2.03;;;25.40;1.00;;;;;;5061345;28;20195;-75
2021/07/12 08:29:58;;;;;;;4.10;2.20;;;25.50;1.00;;;;;;5064350;28;20179;-75
2021/07/12 08:32:24;;;;;;;5.23;1.90;;;25.40;1.00;;;;;;5060767;28;20169;-78
2021/07/12 08:34:50;;;;;;;2.63;1.57;;;25.50;1.00;;;;;;5055673;28;20584;-79
2021/07/12 08:37:16;;;;;;;3.70;1.80;;;25.60;1.00;;;;;;5055933;28;20170;-76
2021/07/12 08:39:42;;;;;;;3.37;2.20;;;25.60;1.00;;;;;;5054148;28;20209;-77
2021/07/12 08:42:10;;;;;;;3.77;2.00;;;25.50;1.00;;;;;;5055558;28;20249;-74
2021/07/12 08:44:36;;;;;;;4.07;2.00;;;25.40;1.00;;;;;;5055329;28;20704;-75
2021/07/12 08:47:04;;;;;;;6.60;2.00;;;25.50;1.00;;;;;;5055636;28;20189;-76
2021/07/12 08:49:30;;;;;;;3.67;1.90;;;25.50;1.00;;;;;;5055457;28;20249;-76
2021/07/12 08:51:55;;;;;;;4.23;1.87;;;25.50;1.00;;;;;;5055122;28;20617;-76
2021/07/12 08:54:21;;;;;;;3.13;2.20;;;25.40;1.00;;;;;;5055343;28;20715;-77
2021/07/12 08:56:47;;;;;;;4.77;1.87;;;25.20;1.00;;;;;;5055406;28;20248;-74
2021/07/12 08:59:28;;;;;;;5.43;2.20;;;25.10;1.00;;;;;;5055414;28;20326;-76
2021/07/12 09:02:20;;;;;;;4.10;2.00;;;25.30;1.00;;;;;;5056217;28;20186;-80
2021/07/12 09:04:50;;;;;;;3.80;1.73;;;25.50;1.00;;;;;;5051850;28;20190;-78
2021/07/12 09:07:24;;;;;;;3.47;1.70;;;25.30;1.00;;;;;;5054585;28;20192;-76
2021/07/12 09:10:00;;;;;;;10.50;2.80;;;25.50;1.00;;;;;;5055069;28;20640;-79
2021/07/12 09:12:50;;;;;;;6.57;2.47;;;25.60;1.00;;;;;;5054747;28;20183;-76
2021/07/12 09:15:18;;;;;;;5.40;2.57;;;25.90;1.00;;;;;;5054758;28;20173;-75
2021/07/12 09:17:52;;;;;;;3.13;2.00;;;26.10;1.00;;;;;;5054781;28;20167;-76
2021/07/12 09:20:29;;;;;;;14.13;3.47;;;26.20;1.00;;;;;;5054902;28;20201;-77
2021/07/12 09:22:56;;;;;;;3.20;1.73;;;26.20;1.00;;;;;;5055593;28;20210;-75
2021/07/12 09:25:30;;;;;;;3.67;1.70;;;25.60;1.00;;;;;;5056569;28;20174;-79
2021/07/12 09:27:56;;;;;;;2.87;1.73;;;25.70;1.00;;;;;;5055133;28;20640;-75
2021/07/12 09:30:23;;;;;;;3.23;1.80;;;25.80;1.00;;;;;;5055444;28;20165;-79
2021/07/12 09:32:53;;;;;;;4.00;2.10;;;25.60;1.00;;;;;;5054814;28;20668;-76
2021/07/12 09:35:20;;;;;;;3.80;2.07;;;25.60;1.00;;;;;;5054853;28;20176;-75
2021/07/12 09:37:54;;;;;;;2.77;1.77;;;25.10;1.00;;;;;;5055082;28;20177;-76
2021/07/12 09:40:20;;;;;;;4.43;2.07;;;25.20;1.00;;;;;;5054481;28;20214;-78
2021/07/12 09:42:48;;;;;;;4.33;2.00;;;25.40;1.00;;;;;;5055986;28;20185;-77
2021/07/12 09:45:17;;;;;;;6.53;2.10;;;25.30;1.00;;;;;;5056879;28;20180;-77
2021/07/12 09:47:45;;;;;;;3.53;2.07;;;25.00;1.00;;;;;;5062325;28;20178;-76
2021/07/12 09:50:20;;;;;;;4.87;2.00;;;25.10;1.00;;;;;;5059684;28;20208;-78
2021/07/12 09:52:49;;;;;;;3.50;1.83;;;25.30;1.00;;;;;;5058353;28;20172;-76
2021/07/12 09:55:41;;;;;;;2.63;1.70;;;25.40;1.00;;;;;;5063232;28;20176;-77
2021/07/12 09:58:16;;;;;;;4.57;1.90;;;25.40;1.00;;;;;;5060129;28;20222;-76
2021/07/12 10:00:48;;;;;;;3.63;2.40;;;25.20;1.00;;;;;;5061599;28;20229;-76
2021/07/12 10:03:16;;;;;;;3.63;2.50;;;25.20;1.00;;;;;;5060264;28;20204;-77
2021/07/12 10:05:44;;;;;;;5.23;2.20;;;25.10;1.00;;;;;;5057813;28;20168;-77
2021/07/12 10:08:11;;;;;;;4.87;2.50;;;24.90;1.00;;;;;;5055289;28;20239;-77
2021/07/12 10:10:37;;;;;;;4.00;2.20;;;25.00;1.00;;;;;;5055623;28;20165;-75
2021/07/12 10:13:05;;;;;;;4.80;2.47;;;25.30;1.00;;;;;;5054842;28;20562;-78
2021/07/12 10:15:31;;;;;;;6.00;2.90;;;25.40;1.00;;;;;;5054335;28;20168;-78
2021/07/12 10:17:57;;;;;;;4.30;2.50;;;25.20;1.00;;;;;;5054657;28;20636;-76
2021/07/12 10:20:25;;;;;;;4.13;1.70;;;25.20;1.00;;;;;;5055932;28;20307;-80
2021/07/12 10:22:51;;;;;;;3.97;1.80;;;25.20;1.00;;;;;;5055892;28;20652;-78
2021/07/12 10:25:20;;;;;;;3.03;1.53;;;25.00;1.00;;;;;;5054832;28;20188;-77
2021/07/12 10:28:03;;;;;;;3.47;1.73;;;24.90;1.00;;;;;;5053616;28;20645;-78
2021/07/12 10:30:35;;;;;;;4.60;1.90;;;25.10;1.00;;;;;;5054728;28;20234;-79
2021/07/12 10:33:10;;;;;;;3.53;2.00;;;25.30;1.00;;;;;;5052931;28;20640;-77
2021/07/12 10:35:37;;;;;;;3.40;2.00;;;25.60;1.00;;;;;;5054370;28;20173;-79
2021/07/12 10:38:03;;;;;;;3.00;1.80;;;25.60;1.00;;;;;;5054673;28;20193;-79
2021/07/12 10:40:50;;;;;;;4.00;2.20;;;25.80;1.00;;;;;;5054471;28;20267;-79
2021/07/12 10:43:44;;;;;;;3.03;1.70;;;25.90;1.00;;;;;;5053854;28;20172;-76
2021/07/12 10:46:30;;;;;;;2.33;1.50;;;25.80;1.00;;;;;;5054428;28;20219;-80
2021/07/12 10:49:15;;;;;;;3.60;1.87;;;25.80;1.00;;;;;;5053793;28;20161;-78
2021/07/12 10:51:41;;;;;;;4.40;2.20;;;26.00;1.00;;;;;;5054264;28;20177;-76
2021/07/12 10:54:12;;;;;;;4.00;2.10;;;26.00;1.00;;;;;;5054184;28;20648;-77
2021/07/12 10:56:40;;;;;;;3.17;1.80;;;26.20;1.00;;;;;;5054350;28;20176;-79
2021/07/12 10:59:06;;;;;;;4.40;1.80;;;26.20;1.00;;;;;;5053978;28;20200;-78
2021/07/12 11:01:37;;;;;;;4.43;1.77;;;26.30;1.00;;;;;;5052603;28;20206;-79
2021/07/12 11:04:33;;;;;;;2.93;2.10;;;26.00;1.00;;;;;;5053584;28;20167;-77
2021/07/12 11:07:01;;;;;;;3.67;1.93;;;26.00;1.00;;;;;;5053432;28;20169;-78
2021/07/12 11:09:51;;;;;;;3.67;2.00;;;25.90;1.00;;;;;;5054821;28;20171;-75
2021/07/12 11:12:36;;;;;;;2.93;1.57;;;25.90;1.00;;;;;;5057754;28;20633;-75
2021/07/12 11:15:14;;;;;;;3.70;1.93;;;26.00;1.00;;;;;;5057835;28;20188;-77
2021/07/12 11:18:18;;;;;;;3.70;1.83;;;26.00;1.00;;;;;;5060539;28;20169;-75
2021/07/12 11:20:57;;;;;;;3.23;2.20;;;25.50;1.00;;;;;;5035740;28;20220;-78
2021/07/12 11:23:38;;;;;;;3.90;2.00;;;25.50;1.00;;;;;;5054103;28;20226;-77
2021/07/12 11:26:23;;;;;;;3.77;1.73;;;25.60;1.00;;;;;;5061134;28;20192;-75
2021/07/12 11:29:00;;;;;;;3.77;2.20;;;25.50;1.00;;;;;;5064023;28;20216;-74
2021/07/12 11:31:46;;;;;;;5.00;2.40;;;25.50;1.00;;;;;;5064503;28;20185;-76
2021/07/12 11:34:42;;;;;;;3.17;2.00;;;25.60;1.00;;;;;;5057051;28;20506;-76
2021/07/12 11:37:09;;;;;;;4.33;2.13;;;25.40;1.00;;;;;;5057261;28;20167;-76
2021/07/12 11:39:39;;;;;;;5.30;2.20;;;25.40;1.00;;;;;;5057052;28;20219;-79
2021/07/12 11:42:18;;;;;;;4.57;2.00;;;25.60;1.00;;;;;;5059180;28;20179;-78
2021/07/12 11:44:51;;;;;;;3.23;2.17;;;25.80;1.00;;;;;;5057231;28;20637;-79
2021/07/12 11:47:26;;;;;;;5.70;2.20;;;25.50;1.00;;;;;;5057434;28;20207;-78
2021/07/12 11:50:00;;;;;;;12.23;2.80;;;25.20;1.00;;;;;;5057646;28;20171;-78
2021/07/12 11:52:28;;;;;;;3.60;2.13;;;25.50;1.00;;;;;;5057126;28;20258;-75
2021/07/12 11:54:58;;;;;;;4.97;2.13;;;25.70;1.00;;;;;;5057781;28;20180;-77
2021/07/12 11:57:24;;;;;;;3.63;2.00;;;25.80;1.00;;;;;;5057104;28;20179;-75
2021/07/12 11:59:49;;;;;;;3.03;2.10;;;25.70;1.00;;;;;;5057448;28;20208;-80
2021/07/12 12:02:17;;;;;;;2.93;2.20;;;25.60;1.00;;;;;;5058368;28;20162;-75
2021/07/12 12:04:58;;;;;;;5.47;1.97;;;25.60;1.00;;;;;;5055639;28;20187;-77
2021/07/12 12:07:34;;;;;;;3.63;2.10;;;25.70;1.00;;;;;;5057061;28;20173;-77
2021/07/12 12:10:20;;;;;;;3.97;2.30;;;25.80;1.00;;;;;;5055708;28;20182;-79
2021/07/12 12:12:51;;;;;;;5.20;2.70;;;26.00;1.00;;;;;;5058086;28;20177;-78
2021/07/12 12:15:20;;;;;;;5.83;2.90;;;25.80;1.00;;;;;;5056481;28;20254;-76
2021/07/12 12:17:59;;;;;;;3.40;2.33;;;25.60;1.00;;;;;;5063693;28;20164;-75
2021/07/12 12:20:28;;;;;;;2.93;2.33;;;25.70;1.00;;;;;;5064787;28;20201;-76
2021/07/12 12:23:26;;;;;;;3.63;2.40;;;25.60;1.00;;;;;;5058536;28;20240;-78
2021/07/12 12:26:04;;;;;;;2.50;2.13;;;25.60;1.00;;;;;;5057135;28;20179;-79
2021/07/12 12:28:35;;;;;;;5.33;2.23;;;25.20;1.00;;;;;;5055978;28;20171;-78
2021/07/12 12:31:06;;;;;;;3.40;2.17;;;25.10;1.00;;;;;;5056566;28;20649;-79
2021/07/12 12:33:34;;;;;;;4.27;2.80;;;25.20;1.00;;;;;;5057239;28;20614;-80
2021/07/12 12:36:08;;;;;;;4.53;3.23;;;25.20;1.00;;;;;;5056460;28;20165;-76
2021/07/12 12:38:36;;;;;;;4.00;2.93;;;24.90;1.00;;;;;;5056256;28;20165;-78
2021/07/12 12:41:06;;;;;;;3.93;2.53;;;24.90;1.00;;;;;;5060076;28;20205;-76
2021/07/12 12:43:34;;;;;;;4.40;2.80;;;24.50;1.00;;;;;;5062752;28;20175;-78
2021/07/12 12:46:02;;;;;;;4.53;2.53;;;24.10;1.00;;;;;;5058751;28;20187;-78
2021/07/12 12:48:34;;;;;;;3.50;2.40;;;23.70;1.00;;;;;;5060871;28;20187;-73
2021/07/12 12:51:33;;;;;;;3.57;2.20;;;23.00;1.00;;;;;;5063806;28;20661;-75
2021/07/12 12:54:12;;;;;;;3.73;2.23;;;22.50;5.00;;;;;;5058146;28;20259;-77
2021/07/12 12:56:51;;;;;;;4.20;2.83;;;22.20;24.00;;;;;;5055333;28;20225;-76
2021/07/12 12:59:28;;;;;;;6.70;4.50;;;21.80;35.90;;;;;;5054698;28;20193;-76
2021/07/12 13:02:07;;;;;;;4.63;3.50;;;21.60;43.10;;;;;;5055333;28;20165;-79
2021/07/12 13:04:52;;;;;;;4.23;3.00;;;21.50;54.10;;;;;;5055135;28;20579;-78
2021/07/12 13:07:54;;;;;;;4.40;2.97;;;21.30;63.00;;;;;;5055260;28;20266;-78